Time;durP1;ratioP1;P1;durP2;ratioP2;P2;SDS_P1;SDS_P2;PMS_P1;PMS_P2;Temp;Humidity;BMP_temperature;BMP_pressure;BME280_temperature;BME280_humidity;BME280_pressure;Samples;Min_cycle;Max_cycle;Signal;HPM_P1;HPM_P2
2022/01/09 00:00:34;;;;;;;4.10;1.57;;;2.40;99.90;;;;;;5015651;28;20637;-91
2022/01/09 00:03:00;;;;;;;5.87;1.70;;;2.40;99.90;;;;;;5014336;28;20190;-91
2022/01/09 00:05:26;;;;;;;2.47;1.50;;;2.40;99.90;;;;;;5014225;28;20497;-91
2022/01/09 00:07:53;;;;;;;5.43;1.57;;;2.40;99.90;;;;;;5015864;28;20176;-90
2022/01/09 00:10:19;;;;;;;3.40;1.70;;;2.40;99.90;;;;;;5015541;28;20191;-90
2022/01/09 00:12:45;;;;;;;4.03;2.00;;;2.40;99.90;;;;;;5015926;28;20179;-90
2022/01/09 00:15:12;;;;;;;3.13;1.53;;;2.40;99.90;;;;;;5015428;28;20203;-92
2022/01/09 00:17:38;;;;;;;4.37;1.63;;;2.30;99.90;;;;;;5015787;28;20518;-91
2022/01/09 00:20:06;;;;;;;3.47;1.80;;;2.40;99.90;;;;;;5017014;28;20183;-91
2022/01/09 00:22:40;;;;;;;2.60;1.63;;;2.40;99.90;;;;;;5016298;28;20182;-92
2022/01/09 00:25:07;;;;;;;4.10;1.73;;;2.40;99.90;;;;;;5015741;28;20175;-91
2022/01/09 00:27:32;;;;;;;4.57;1.93;;;2.50;99.90;;;;;;5016364;28;20175;-92
2022/01/09 00:29:58;;;;;;;2.53;1.83;;;2.40;99.90;;;;;;5031978;28;20198;-92
2022/01/09 00:32:24;;;;;;;4.03;2.23;;;2.50;99.90;;;;;;5017600;28;20185;-92
2022/01/09 00:34:50;;;;;;;3.83;1.90;;;2.50;99.90;;;;;;5015680;28;20557;-91
2022/01/09 00:37:16;;;;;;;4.23;1.70;;;2.50;99.90;;;;;;5015276;28;20176;-90
2022/01/09 00:39:41;;;;;;;2.77;1.67;;;2.50;99.90;;;;;;5015914;28;20179;-91
2022/01/09 00:42:07;;;;;;;3.33;1.60;;;2.50;99.90;;;;;;5015071;28;20255;-91
2022/01/09 00:44:33;;;;;;;4.00;2.13;;;2.60;99.90;;;;;;5015751;28;20175;-91
2022/01/09 00:49:34;;;;;;;5.70;2.20;;;2.60;99.90;;;;;;5109336;23;20272;-95
2022/01/09 00:52:00;;;;;;;3.03;1.90;;;2.60;99.90;;;;;;4972903;28;20207;-95
2022/01/09 00:54:25;;;;;;;6.70;2.10;;;2.60;99.90;;;;;;4957085;29;20203;-96
2022/01/09 00:56:51;;;;;;;6.03;1.93;;;2.60;99.90;;;;;;4965371;28;20220;-95
2022/01/09 00:59:17;;;;;;;3.23;1.80;;;2.60;99.90;;;;;;4974868;28;20902;-95
2022/01/09 01:01:43;;;;;;;2.77;1.80;;;2.60;99.90;;;;;;4975713;28;20188;-95
2022/01/09 01:04:09;;;;;;;2.83;1.90;;;2.60;99.90;;;;;;4975266;28;20506;-95
2022/01/09 01:06:35;;;;;;;3.80;1.80;;;2.60;99.90;;;;;;4975751;28;20204;-94
2022/01/09 01:09:00;;;;;;;2.57;1.80;;;2.60;99.90;;;;;;4975729;28;20177;-94
2022/01/09 01:11:26;;;;;;;3.47;1.90;;;2.60;99.90;;;;;;4975010;28;20623;-94
2022/01/09 01:13:52;;;;;;;2.60;1.40;;;2.60;99.90;;;;;;4975426;28;20527;-94
2022/01/09 01:16:17;;;;;;;3.00;1.80;;;2.60;99.90;;;;;;4974878;28;20553;-95
2022/01/09 01:18:44;;;;;;;4.47;1.93;;;2.60;99.90;;;;;;4975123;28;20180;-96
2022/01/09 01:21:10;;;;;;;3.17;1.57;;;2.60;99.90;;;;;;4975567;28;20183;-96
2022/01/09 01:23:36;;;;;;;2.10;1.50;;;2.60;99.90;;;;;;4974780;28;20218;-95
2022/01/09 01:26:02;;;;;;;3.43;2.00;;;2.60;99.90;;;;;;4975312;28;20254;-93
2022/01/09 01:28:29;;;;;;;2.40;1.60;;;2.70;99.90;;;;;;4974997;28;20267;-94
2022/01/09 01:30:55;;;;;;;3.80;1.80;;;2.60;99.90;;;;;;4974871;28;20275;-94
2022/01/09 01:33:22;;;;;;;2.70;1.60;;;2.70;99.90;;;;;;4974834;28;20299;-94
2022/01/09 01:35:48;;;;;;;4.17;1.40;;;2.70;99.90;;;;;;4974248;28;20647;-94
2022/01/09 01:38:13;;;;;;;4.20;1.43;;;2.70;99.90;;;;;;4974432;28;20187;-94
2022/01/09 01:40:40;;;;;;;2.53;1.30;;;2.70;99.90;;;;;;4974514;28;20599;-93
2022/01/09 01:43:07;;;;;;;2.00;1.50;;;2.70;99.90;;;;;;4963254;28;20612;-94
2022/01/09 01:45:32;;;;;;;2.53;1.50;;;2.70;99.90;;;;;;4975484;28;20511;-95
2022/01/09 01:48:05;;;;;;;2.33;1.40;;;2.70;99.90;;;;;;4973716;28;20275;-94
2022/01/09 01:50:36;;;;;;;2.07;1.50;;;2.70;99.90;;;;;;4974623;28;20280;-94
2022/01/09 01:53:08;;;;;;;3.20;1.50;;;2.70;99.90;;;;;;4974946;28;20181;-95
2022/01/09 01:55:39;;;;;;;5.33;1.30;;;2.70;99.90;;;;;;4975080;28;20247;-95
2022/01/09 01:58:06;;;;;;;3.00;1.30;;;2.80;99.90;;;;;;4974872;28;20203;-95
2022/01/09 02:00:33;;;;;;;1.50;1.30;;;2.80;99.90;;;;;;4975055;28;20181;-94
2022/01/09 02:02:59;;;;;;;3.70;1.23;;;2.80;99.90;;;;;;4974643;28;20196;-94
2022/01/09 02:05:26;;;;;;;3.13;1.10;;;2.80;99.90;;;;;;4975018;28;20596;-94
2022/01/09 02:07:53;;;;;;;4.50;1.57;;;2.80;99.90;;;;;;4974901;28;20176;-94
2022/01/09 02:10:19;;;;;;;3.37;1.37;;;2.80;99.90;;;;;;4974935;28;20295;-94
2022/01/09 02:12:45;;;;;;;5.53;1.90;;;2.80;99.90;;;;;;4974854;28;20173;-95
2022/01/09 02:15:32;;;;;;;2.07;1.60;;;2.80;99.90;;;;;;4975078;28;20216;-95
2022/01/09 02:17:59;;;;;;;1.87;1.43;;;2.80;99.90;;;;;;4975561;28;20176;-94
2022/01/09 02:20:26;;;;;;;3.33;1.50;;;2.80;99.90;;;;;;4974878;28;20184;-94
2022/01/09 02:22:52;;;;;;;2.03;1.63;;;2.70;99.90;;;;;;4975081;28;20176;-94
2022/01/09 02:25:17;;;;;;;5.53;1.37;;;2.70;99.90;;;;;;4974896;28;20258;-95
2022/01/09 02:27:43;;;;;;;3.40;1.67;;;2.80;99.90;;;;;;4975889;28;20183;-94
2022/01/09 02:30:09;;;;;;;2.10;1.53;;;2.70;99.90;;;;;;4979047;28;20227;-93
2022/01/09 02:32:35;;;;;;;3.77;1.63;;;2.70;99.90;;;;;;4978641;28;20188;-95
2022/01/09 02:35:01;;;;;;;1.53;1.33;;;2.70;99.90;;;;;;4978557;28;20208;-96
2022/01/09 02:37:27;;;;;;;4.87;1.90;;;2.70;99.90;;;;;;4979622;28;20180;-96
2022/01/09 02:39:53;;;;;;;3.70;1.40;;;2.70;99.90;;;;;;4978112;28;20183;-96
2022/01/09 02:42:28;;;;;;;3.00;1.57;;;2.70;99.90;;;;;;4978315;28;20184;-94
2022/01/09 02:44:55;;;;;;;2.33;1.40;;;2.70;99.90;;;;;;4978773;28;20622;-95
2022/01/09 02:47:22;;;;;;;3.60;1.57;;;2.70;99.90;;;;;;4978139;28;20184;-94
2022/01/09 02:49:51;;;;;;;1.70;1.40;;;2.60;99.90;;;;;;4978005;28;20541;-95
2022/01/09 02:52:35;;;;;;;2.63;1.30;;;2.60;99.90;;;;;;4978034;28;20259;-96
2022/01/09 02:55:14;;;;;;;2.50;1.43;;;2.70;99.90;;;;;;4978415;28;20648;-95
2022/01/09 02:57:45;;;;;;;2.47;1.40;;;2.70;99.90;;;;;;4978480;28;20665;-96
2022/01/09 03:00:14;;;;;;;3.83;1.37;;;2.70;99.90;;;;;;4978419;28;20204;-95
2022/01/09 03:02:40;;;;;;;1.83;1.47;;;2.80;99.90;;;;;;4966169;28;20185;-95
2022/01/09 03:05:07;;;;;;;4.27;1.60;;;2.80;99.90;;;;;;4958906;29;20616;-95
2022/01/09 03:07:32;;;;;;;2.20;1.27;;;2.80;99.90;;;;;;4961419;28;20280;-93
2022/01/09 03:09:58;;;;;;;2.63;1.40;;;2.80;99.90;;;;;;4976309;28;20184;-94
2022/01/09 03:12:24;;;;;;;1.67;1.10;;;2.80;99.90;;;;;;4978704;28;20180;-95
2022/01/09 03:14:50;;;;;;;3.90;1.50;;;2.80;99.90;;;;;;4977986;28;20235;-94
2022/01/09 03:17:16;;;;;;;2.70;1.30;;;2.80;99.90;;;;;;4977657;28;20185;-94
2022/01/09 03:19:42;;;;;;;4.30;1.40;;;2.80;99.90;;;;;;4977465;28;20176;-93
2022/01/09 03:22:08;;;;;;;2.60;1.40;;;2.70;99.90;;;;;;4978473;28;20185;-94
2022/01/09 03:24:34;;;;;;;3.37;1.40;;;2.70;99.90;;;;;;4977920;28;20200;-95
2022/01/09 03:27:01;;;;;;;1.70;1.47;;;2.70;99.90;;;;;;4977540;28;20188;-95
2022/01/09 03:29:28;;;;;;;4.43;1.37;;;2.70;99.90;;;;;;4977034;28;20180;-95
2022/01/09 03:31:54;;;;;;;2.50;1.50;;;2.60;99.90;;;;;;4977345;28;20222;-95
2022/01/09 03:34:20;;;;;;;3.33;1.80;;;2.60;99.90;;;;;;4977641;28;20562;-95
2022/01/09 03:36:45;;;;;;;3.53;2.00;;;2.60;99.90;;;;;;4976422;28;20247;-95
2022/01/09 03:39:11;;;;;;;2.90;1.87;;;2.60;99.90;;;;;;4977467;28;20220;-94
2022/01/09 03:41:37;;;;;;;2.07;1.37;;;2.60;99.90;;;;;;4976767;28;20188;-94
2022/01/09 03:44:03;;;;;;;2.17;1.37;;;2.60;99.90;;;;;;4976839;28;20188;-94
2022/01/09 03:46:29;;;;;;;4.03;1.60;;;2.60;99.90;;;;;;4976947;28;20276;-94
2022/01/09 03:48:55;;;;;;;1.70;1.40;;;2.60;99.90;;;;;;4976376;28;20319;-93
2022/01/09 03:51:25;;;;;;;3.57;1.53;;;2.60;99.90;;;;;;4977555;28;20239;-94
2022/01/09 03:53:51;;;;;;;2.00;1.53;;;2.60;99.90;;;;;;4977444;28;20203;-94
2022/01/09 03:56:17;;;;;;;4.13;1.57;;;2.60;99.90;;;;;;4977136;28;20220;-95
2022/01/09 03:58:43;;;;;;;2.83;1.30;;;2.60;99.90;;;;;;4976962;28;20271;-95
2022/01/09 04:01:09;;;;;;;2.03;1.40;;;2.60;99.90;;;;;;4977119;28;20184;-95
2022/01/09 04:03:36;;;;;;;3.40;1.40;;;2.60;99.90;;;;;;4976869;28;20192;-94
2022/01/09 04:06:02;;;;;;;2.20;1.07;;;2.60;99.90;;;;;;4977385;28;20185;-93
2022/01/09 04:08:29;;;;;;;4.33;1.23;;;2.60;99.90;;;;;;4976714;28;20369;-94
2022/01/09 04:10:55;;;;;;;4.03;1.43;;;2.50;99.90;;;;;;4976758;28;20191;-94
2022/01/09 04:13:21;;;;;;;4.70;1.30;;;2.60;99.90;;;;;;4976797;28;20202;-94
2022/01/09 04:15:49;;;;;;;3.30;1.57;;;2.60;99.90;;;;;;4976744;28;20213;-95
2022/01/09 04:18:20;;;;;;;6.13;1.77;;;2.60;99.90;;;;;;4976341;28;20629;-95
2022/01/09 04:20:46;;;;;;;2.53;1.60;;;2.60;99.90;;;;;;4976312;28;20210;-95
2022/01/09 04:23:12;;;;;;;1.47;1.17;;;2.60;99.90;;;;;;4976687;28;20483;-94
2022/01/09 04:25:39;;;;;;;2.33;1.43;;;2.60;99.90;;;;;;4976245;28;20195;-94
2022/01/09 04:28:05;;;;;;;3.77;1.63;;;2.60;99.90;;;;;;4976271;28;20176;-94
2022/01/09 04:30:31;;;;;;;2.87;1.10;;;2.60;99.90;;;;;;4976395;28;20191;-95
2022/01/09 04:32:57;;;;;;;3.73;1.53;;;2.60;99.90;;;;;;4976598;28;20324;-94
2022/01/09 04:35:23;;;;;;;3.07;1.53;;;2.60;99.90;;;;;;4976419;28;20212;-94
2022/01/09 04:37:49;;;;;;;3.30;1.57;;;2.60;99.90;;;;;;4975987;28;20177;-94
2022/01/09 04:40:17;;;;;;;2.60;1.50;;;2.60;99.90;;;;;;4976037;28;20563;-94
2022/01/09 04:42:50;;;;;;;2.10;1.20;;;2.60;99.90;;;;;;4975643;28;20189;-94
2022/01/09 04:45:18;;;;;;;2.00;1.40;;;2.60;99.90;;;;;;4976230;28;20181;-95
2022/01/09 04:47:47;;;;;;;2.77;1.70;;;2.60;99.90;;;;;;4975935;28;20177;-93
2022/01/09 04:50:23;;;;;;;2.03;1.53;;;2.60;99.90;;;;;;4975594;28;20192;-95
2022/01/09 04:52:52;;;;;;;2.13;1.13;;;2.60;99.90;;;;;;4976006;28;20184;-94
2022/01/09 04:55:18;;;;;;;2.40;1.70;;;2.60;99.90;;;;;;4975873;28;20363;-95
2022/01/09 04:57:44;;;;;;;2.63;1.60;;;2.60;99.90;;;;;;4975824;28;20214;-93
2022/01/09 05:00:10;;;;;;;2.20;1.53;;;2.60;99.90;;;;;;4975757;28;20208;-94
2022/01/09 05:02:36;;;;;;;2.03;1.30;;;2.50;99.90;;;;;;4975703;28;20558;-94
2022/01/09 05:05:04;;;;;;;3.70;1.43;;;2.50;99.90;;;;;;4975508;28;20183;-95
2022/01/09 05:07:30;;;;;;;2.17;1.80;;;2.50;99.90;;;;;;4975489;28;20192;-94
2022/01/09 05:09:56;;;;;;;3.00;1.53;;;2.50;99.90;;;;;;4976567;28;20504;-94
2022/01/09 05:12:24;;;;;;;4.80;1.80;;;2.50;99.90;;;;;;4976081;28;20264;-94
2022/01/09 05:14:49;;;;;;;3.07;1.63;;;2.50;99.90;;;;;;4974768;28;20212;-95
2022/01/09 05:17:15;;;;;;;3.53;1.70;;;2.50;99.90;;;;;;4975421;28;20210;-94
2022/01/09 05:19:41;;;;;;;2.87;1.80;;;2.40;99.90;;;;;;4975424;28;20180;-94
2022/01/09 05:22:08;;;;;;;2.30;1.70;;;2.40;99.90;;;;;;4975821;28;20195;-95
2022/01/09 05:24:35;;;;;;;2.90;1.80;;;2.40;99.90;;;;;;4975657;28;20180;-94
2022/01/09 05:27:00;;;;;;;7.23;1.60;;;2.40;99.90;;;;;;4975362;28;20188;-93
2022/01/09 05:29:26;;;;;;;1.83;1.43;;;2.40;99.90;;;;;;4975135;28;20512;-93
2022/01/09 05:31:52;;;;;;;2.50;1.83;;;2.30;99.90;;;;;;4975502;28;20275;-95
2022/01/09 05:34:18;;;;;;;3.03;1.80;;;2.30;99.90;;;;;;4975577;28;20176;-94
2022/01/09 05:36:43;;;;;;;4.13;1.80;;;2.30;99.90;;;;;;4975357;28;20224;-94
2022/01/09 05:39:09;;;;;;;2.60;2.00;;;2.30;99.90;;;;;;4975994;28;20187;-94
2022/01/09 05:41:35;;;;;;;2.67;1.90;;;2.30;99.90;;;;;;4975617;28;20185;-95
2022/01/09 05:44:01;;;;;;;2.43;1.87;;;2.20;99.90;;;;;;4975222;28;20177;-94
2022/01/09 05:46:27;;;;;;;3.53;2.17;;;2.20;99.90;;;;;;4975156;28;20643;-93
2022/01/09 05:48:52;;;;;;;3.97;2.37;;;2.20;99.90;;;;;;4975171;28;20232;-94
2022/01/09 05:51:19;;;;;;;4.00;2.20;;;2.20;99.90;;;;;;4975157;28;20279;-94
2022/01/09 05:53:45;;;;;;;2.67;2.07;;;2.20;99.90;;;;;;4975534;28;20234;-94
2022/01/09 05:56:10;;;;;;;3.17;1.80;;;2.10;99.90;;;;;;4975012;28;20647;-94
2022/01/09 05:58:36;;;;;;;3.60;1.97;;;2.20;99.90;;;;;;4974773;28;20611;-94
2022/01/09 06:01:03;;;;;;;4.30;2.30;;;2.20;99.90;;;;;;4975131;28;20184;-93
2022/01/09 06:03:30;;;;;;;3.60;2.10;;;2.10;99.90;;;;;;4977891;28;20519;-94
2022/01/09 06:05:55;;;;;;;4.87;2.30;;;2.10;99.90;;;;;;4978889;28;20176;-94
2022/01/09 06:08:21;;;;;;;3.70;2.50;;;2.10;99.90;;;;;;4979020;28;20242;-94
2022/01/09 06:10:47;;;;;;;2.97;2.00;;;2.10;99.90;;;;;;4978831;28;20702;-94
2022/01/09 06:13:13;;;;;;;3.10;2.13;;;2.10;99.90;;;;;;4979069;28;20181;-94
2022/01/09 06:15:38;;;;;;;3.47;2.10;;;2.10;99.90;;;;;;4979293;28;20627;-94
2022/01/09 06:18:05;;;;;;;3.97;2.33;;;2.20;99.90;;;;;;4979166;28;20177;-94
2022/01/09 06:20:30;;;;;;;4.00;1.90;;;2.10;99.90;;;;;;4979140;28;20583;-94
2022/01/09 06:22:56;;;;;;;5.30;2.17;;;2.10;99.90;;;;;;4978887;28;20255;-94
2022/01/09 06:25:22;;;;;;;2.63;2.03;;;2.20;99.90;;;;;;4978900;28;20259;-94
2022/01/09 06:27:48;;;;;;;4.37;2.50;;;2.20;99.90;;;;;;4978552;28;20635;-94
2022/01/09 06:30:14;;;;;;;4.17;2.10;;;2.10;99.90;;;;;;4978584;28;20309;-93
2022/01/09 06:32:40;;;;;;;3.43;2.50;;;2.10;99.90;;;;;;4978531;28;20188;-94
2022/01/09 06:35:06;;;;;;;2.73;2.00;;;2.10;99.90;;;;;;4978860;28;20208;-93
2022/01/09 06:37:32;;;;;;;4.07;2.00;;;2.10;99.90;;;;;;4978550;28;20185;-93
2022/01/09 06:39:58;;;;;;;3.90;2.10;;;2.10;99.90;;;;;;4978553;28;20177;-94
2022/01/09 06:42:24;;;;;;;3.13;2.40;;;2.10;99.90;;;;;;4978479;28;20228;-93
2022/01/09 06:44:49;;;;;;;3.70;2.10;;;2.10;99.90;;;;;;4978097;28;20271;-93
2022/01/09 06:47:15;;;;;;;4.00;2.40;;;2.10;99.90;;;;;;4978465;28;20189;-93
2022/01/09 06:49:41;;;;;;;6.03;2.80;;;2.10;99.90;;;;;;4978054;28;20263;-94
2022/01/09 06:52:07;;;;;;;4.33;2.60;;;2.10;99.90;;;;;;4978233;28;20184;-93
2022/01/09 06:54:32;;;;;;;3.20;2.57;;;2.10;99.90;;;;;;4978200;28;20268;-93
2022/01/09 06:56:58;;;;;;;3.03;2.40;;;2.10;99.90;;;;;;4978420;28;20188;-93
2022/01/09 06:59:24;;;;;;;7.50;2.93;;;2.00;99.90;;;;;;4977896;28;20608;-94
2022/01/09 07:01:50;;;;;;;3.67;2.63;;;2.00;99.90;;;;;;4977845;28;20188;-94
2022/01/09 07:04:16;;;;;;;5.73;2.97;;;2.00;99.90;;;;;;4973540;28;20177;-93
2022/01/09 07:06:42;;;;;;;3.10;2.60;;;2.00;99.90;;;;;;4958440;28;20619;-95
2022/01/09 07:09:08;;;;;;;5.00;3.10;;;2.00;99.90;;;;;;4958623;28;20183;-94
2022/01/09 07:11:34;;;;;;;6.60;3.00;;;2.00;99.90;;;;;;4958919;28;20268;-94
2022/01/09 07:14:00;;;;;;;4.97;2.90;;;2.00;99.90;;;;;;4958285;28;20284;-93
2022/01/09 07:16:25;;;;;;;4.30;3.10;;;2.00;99.90;;;;;;4967925;28;20201;-93
2022/01/09 07:18:51;;;;;;;4.27;2.83;;;1.90;99.90;;;;;;4963387;28;20176;-93
2022/01/09 07:21:17;;;;;;;4.93;3.20;;;1.90;99.90;;;;;;4958095;28;20169;-94
2022/01/09 07:23:43;;;;;;;6.87;3.10;;;1.90;99.90;;;;;;4958492;28;20640;-93
2022/01/09 07:26:08;;;;;;;6.27;3.37;;;1.90;99.90;;;;;;4959204;28;20266;-94
2022/01/09 07:28:34;;;;;;;4.90;3.37;;;1.90;99.90;;;;;;4958239;28;20178;-94
2022/01/09 07:31:00;;;;;;;5.17;3.50;;;1.90;99.90;;;;;;4957873;28;20181;-94
2022/01/09 07:33:26;;;;;;;7.77;3.50;;;1.90;99.90;;;;;;4975897;28;20635;-94
2022/01/09 07:35:51;;;;;;;6.03;3.67;;;1.90;99.90;;;;;;4977335;28;20299;-94
2022/01/09 07:38:17;;;;;;;4.40;3.40;;;1.90;99.90;;;;;;4977485;28;20216;-94
2022/01/09 07:40:43;;;;;;;4.13;3.60;;;1.90;99.90;;;;;;4977345;28;20189;-94
2022/01/09 07:43:08;;;;;;;6.80;3.70;;;1.90;99.90;;;;;;4971868;28;20271;-93
2022/01/09 07:45:35;;;;;;;3.90;3.50;;;1.90;99.90;;;;;;4976672;28;20193;-93
2022/01/09 07:48:02;;;;;;;5.90;3.63;;;1.90;99.90;;;;;;4970194;28;20216;-93
2022/01/09 07:50:28;;;;;;;5.10;3.80;;;1.90;99.90;;;;;;4973326;28;20188;-94
2022/01/09 07:52:55;;;;;;;5.33;3.67;;;2.00;99.90;;;;;;4976829;28;20191;-93
2022/01/09 07:55:22;;;;;;;4.43;3.60;;;2.00;99.90;;;;;;4976544;28;20204;-93
2022/01/09 07:57:49;;;;;;;5.27;3.93;;;2.00;99.90;;;;;;4976951;28;20180;-92
2022/01/09 08:00:16;;;;;;;4.70;3.57;;;2.00;99.90;;;;;;4976032;28;20180;-93
2022/01/09 08:02:43;;;;;;;5.67;3.97;;;2.00;99.90;;;;;;4974786;28;20263;-93
2022/01/09 08:05:10;;;;;;;4.90;3.90;;;2.10;99.90;;;;;;4977358;28;20192;-94
2022/01/09 08:07:36;;;;;;;5.23;3.90;;;2.00;99.90;;;;;;4976350;28;20176;-94
2022/01/09 08:10:02;;;;;;;6.00;3.63;;;2.00;99.90;;;;;;4976883;28;20207;-94
2022/01/09 08:12:28;;;;;;;6.23;3.77;;;2.10;99.90;;;;;;4976712;28;20268;-94
2022/01/09 08:14:53;;;;;;;6.03;4.00;;;2.10;99.90;;;;;;4976174;28;20731;-95
2022/01/09 08:17:19;;;;;;;5.07;3.60;;;2.10;99.90;;;;;;4976701;28;20184;-94
2022/01/09 08:19:45;;;;;;;5.93;4.47;;;2.10;99.90;;;;;;4976931;28;20180;-93
2022/01/09 08:22:10;;;;;;;5.57;4.13;;;2.10;99.90;;;;;;4976567;28;20258;-94
2022/01/09 08:24:39;;;;;;;5.80;3.77;;;2.10;99.90;;;;;;4976248;28;20677;-93
2022/01/09 08:27:05;;;;;;;5.63;3.70;;;2.20;99.90;;;;;;4976007;28;20226;-93
2022/01/09 08:29:31;;;;;;;5.57;4.10;;;2.20;99.90;;;;;;4976637;28;20183;-93
2022/01/09 08:31:57;;;;;;;4.90;3.80;;;2.20;99.90;;;;;;4976448;28;20185;-93
2022/01/09 08:34:23;;;;;;;7.10;3.67;;;2.20;99.90;;;;;;4976783;28;20216;-94
2022/01/09 08:36:49;;;;;;;7.73;4.30;;;2.20;99.90;;;;;;4976154;28;20216;-94
2022/01/09 08:39:15;;;;;;;5.10;3.90;;;2.20;99.90;;;;;;4976673;28;20177;-94
2022/01/09 08:41:40;;;;;;;4.13;3.73;;;2.20;99.90;;;;;;4975948;28;20275;-93
2022/01/09 08:44:07;;;;;;;6.30;4.10;;;2.20;99.90;;;;;;4975085;28;20599;-93
2022/01/09 08:46:37;;;;;;;5.47;4.53;;;2.20;99.90;;;;;;4973203;28;20618;-94
2022/01/09 08:49:04;;;;;;;5.73;4.23;;;2.20;99.90;;;;;;4975846;28;20234;-94
2022/01/09 08:51:30;;;;;;;5.20;4.37;;;2.30;99.90;;;;;;4976128;28;20217;-94
2022/01/09 08:53:57;;;;;;;10.77;4.47;;;2.30;99.90;;;;;;4975855;28;20176;-93
2022/01/09 08:56:25;;;;;;;5.47;3.70;;;2.30;99.90;;;;;;4975387;28;20542;-93
2022/01/09 08:58:52;;;;;;;7.33;3.90;;;2.30;99.90;;;;;;4975535;28;20177;-94
2022/01/09 09:01:18;;;;;;;5.57;3.57;;;2.40;99.90;;;;;;4971687;28;20612;-92
2022/01/09 09:03:44;;;;;;;7.30;3.63;;;2.40;99.90;;;;;;4969138;28;20253;-93
2022/01/09 09:06:15;;;;;;;5.47;4.03;;;2.50;99.90;;;;;;4972376;28;20177;-93
2022/01/09 09:08:42;;;;;;;4.00;3.40;;;2.50;99.90;;;;;;4972436;28;20181;-93
2022/01/09 09:11:09;;;;;;;3.70;3.13;;;2.60;99.90;;;;;;4975739;28;20233;-93
2022/01/09 09:13:36;;;;;;;5.97;3.93;;;2.60;99.90;;;;;;4977130;28;20239;-93
2022/01/09 09:16:03;;;;;;;4.33;3.20;;;2.60;99.90;;;;;;4971788;28;20225;-93
2022/01/09 09:18:29;;;;;;;5.40;3.13;;;2.60;99.90;;;;;;4972239;28;20228;-93
2022/01/09 09:20:55;;;;;;;4.67;3.33;;;2.60;99.90;;;;;;4973275;28;20628;-93
2022/01/09 09:23:21;;;;;;;4.07;3.20;;;2.60;99.90;;;;;;4975450;28;20219;-93
2022/01/09 09:25:47;;;;;;;3.70;3.07;;;2.70;99.90;;;;;;4975357;28;20694;-92
2022/01/09 09:28:14;;;;;;;3.33;2.30;;;2.80;99.90;;;;;;4975742;28;20180;-94
2022/01/09 09:30:40;;;;;;;2.47;2.20;;;2.80;99.90;;;;;;4975253;28;20530;-94
2022/01/09 09:33:06;;;;;;;1.87;1.77;;;2.80;99.90;;;;;;4975329;28;20196;-92
2022/01/09 09:35:33;;;;;;;1.60;1.50;;;2.80;99.90;;;;;;4975115;28;20235;-93
2022/01/09 09:37:59;;;;;;;1.63;1.53;;;2.80;99.90;;;;;;4975077;28;20270;-93
2022/01/09 09:40:28;;;;;;;1.50;1.40;;;2.70;99.90;;;;;;4975218;28;20280;-93
2022/01/09 09:42:55;;;;;;;1.50;1.40;;;2.70;99.90;;;;;;4975891;28;20191;-94
2022/01/09 09:45:23;;;;;;;1.57;1.47;;;2.70;99.90;;;;;;4974834;28;20191;-93
2022/01/09 09:47:50;;;;;;;2.00;1.50;;;2.70;99.90;;;;;;4974995;28;20639;-93
2022/01/09 09:50:17;;;;;;;1.40;1.30;;;2.70;99.90;;;;;;4975233;28;20184;-95
2022/01/09 09:52:44;;;;;;;1.57;1.47;;;2.70;99.90;;;;;;4975009;28;20201;-93
2022/01/09 09:55:11;;;;;;;1.30;1.20;;;2.70;99.90;;;;;;4975351;28;20220;-94
2022/01/09 09:57:37;;;;;;;1.47;1.37;;;2.60;99.90;;;;;;4963981;28;20185;-93
2022/01/09 10:00:10;;;;;;;1.57;1.47;;;2.60;99.90;;;;;;4955384;28;20188;-93
2022/01/09 10:02:43;;;;;;;1.40;1.30;;;2.60;99.90;;;;;;4966009;28;20344;-94
2022/01/09 10:05:11;;;;;;;1.83;1.70;;;2.50;99.90;;;;;;4974721;28;20192;-92
2022/01/09 10:07:36;;;;;;;1.80;1.70;;;2.50;99.90;;;;;;4974917;28;20254;-94
2022/01/09 10:10:09;;;;;;;2.50;1.67;;;2.50;99.90;;;;;;4974940;28;20215;-91
2022/01/09 10:12:36;;;;;;;1.47;1.37;;;2.50;99.90;;;;;;4975204;28;20171;-93
2022/01/09 10:15:06;;;;;;;1.97;1.80;;;2.50;99.90;;;;;;4976201;28;20208;-93
2022/01/09 10:17:34;;;;;;;2.07;1.87;;;2.60;99.90;;;;;;4975606;28;20184;-93
2022/01/09 10:20:04;;;;;;;2.30;1.90;;;2.60;99.90;;;;;;4976193;28;20227;-94
2022/01/09 10:22:34;;;;;;;2.40;2.20;;;2.60;99.90;;;;;;4974667;28;20635;-93
2022/01/09 10:25:22;;;;;;;2.20;2.00;;;2.60;99.90;;;;;;4975268;28;20191;-93
2022/01/09 10:27:49;;;;;;;1.93;1.83;;;2.70;99.90;;;;;;4975487;28;20179;-93
2022/01/09 10:30:16;;;;;;;2.17;1.97;;;2.70;99.90;;;;;;4975131;28;20185;-93
2022/01/09 10:32:42;;;;;;;1.97;1.83;;;2.70;99.90;;;;;;4974589;28;20180;-93
2022/01/09 10:35:17;;;;;;;2.03;1.83;;;2.70;99.90;;;;;;4975001;28;20212;-94
2022/01/09 10:38:02;;;;;;;2.03;1.83;;;2.60;99.90;;;;;;4976156;28;20581;-93
2022/01/09 10:40:29;;;;;;;2.17;1.97;;;2.60;99.90;;;;;;4975123;28;20184;-94
2022/01/09 10:43:05;;;;;;;2.40;2.17;;;2.60;99.90;;;;;;4974931;28;20180;-93
2022/01/09 10:45:31;;;;;;;2.10;1.90;;;2.60;99.90;;;;;;4968836;28;20213;-93
2022/01/09 10:48:06;;;;;;;2.83;2.20;;;2.60;99.90;;;;;;4965664;28;20696;-93
2022/01/09 10:50:35;;;;;;;2.40;2.20;;;2.60;99.90;;;;;;4972827;28;20179;-93
2022/01/09 10:53:17;;;;;;;2.30;2.00;;;2.60;99.90;;;;;;4977177;28;20181;-93
2022/01/09 10:55:45;;;;;;;2.53;2.20;;;2.60;99.90;;;;;;4977509;28;20239;-93
2022/01/09 10:58:19;;;;;;;2.40;2.20;;;2.60;99.90;;;;;;4978396;28;20187;-93
2022/01/09 11:00:46;;;;;;;2.20;2.00;;;2.60;99.90;;;;;;4978602;28;20176;-93
2022/01/09 11:03:12;;;;;;;2.60;2.40;;;2.50;99.90;;;;;;4978218;28;20607;-93
2022/01/09 11:05:39;;;;;;;2.50;2.30;;;2.50;99.90;;;;;;4977753;28;20248;-94
2022/01/09 11:08:05;;;;;;;2.93;2.10;;;2.50;99.90;;;;;;4977014;28;20221;-93
2022/01/09 11:10:33;;;;;;;5.00;2.57;;;2.60;99.90;;;;;;4977478;28;20219;-94
2022/01/09 11:13:01;;;;;;;2.80;2.13;;;2.60;99.90;;;;;;4978423;28;20599;-94
2022/01/09 11:15:29;;;;;;;2.33;1.90;;;2.60;99.90;;;;;;4977843;28;20566;-94
2022/01/09 11:18:01;;;;;;;3.53;2.17;;;2.60;99.90;;;;;;4977866;28;20184;-94
2022/01/09 11:20:26;;;;;;;2.30;2.00;;;2.60;99.90;;;;;;4976047;28;20219;-94
2022/01/09 11:22:58;;;;;;;4.73;2.43;;;2.60;99.90;;;;;;4976888;28;20204;-94
2022/01/09 11:25:40;;;;;;;2.60;1.93;;;2.60;99.90;;;;;;4971727;28;20623;-93
2022/01/09 11:28:23;;;;;;;2.90;2.27;;;2.70;99.90;;;;;;4976658;28;20271;-92
2022/01/09 11:31:15;;;;;;;3.30;2.20;;;2.70;99.90;;;;;;4968262;28;20612;-93
2022/01/09 11:34:15;;;;;;;3.00;2.10;;;2.70;99.90;;;;;;4972934;28;20181;-93
2022/01/09 11:37:08;;;;;;;3.43;2.30;;;2.80;99.90;;;;;;4974997;28;20216;-92
2022/01/09 11:39:36;;;;;;;2.93;2.37;;;2.70;99.90;;;;;;4977283;28;20172;-92
2022/01/09 11:42:08;;;;;;;4.83;2.03;;;2.70;99.90;;;;;;4977237;28;20533;-93
2022/01/09 11:44:34;;;;;;;5.33;2.70;;;2.80;99.90;;;;;;4972607;28;20192;-92
2022/01/09 11:47:05;;;;;;;3.10;2.37;;;2.80;99.90;;;;;;4976918;28;20196;-93
2022/01/09 11:49:50;;;;;;;3.57;2.40;;;2.80;99.90;;;;;;4976013;28;20228;-93
2022/01/09 11:52:15;;;;;;;4.17;2.47;;;2.90;99.90;;;;;;4977431;28;20501;-93
2022/01/09 11:54:54;;;;;;;4.60;2.87;;;2.90;99.90;;;;;;4976093;28;20187;-94
2022/01/09 11:57:46;;;;;;;4.67;2.80;;;2.90;99.90;;;;;;4975625;28;20504;-93
2022/01/09 12:00:29;;;;;;;6.87;2.80;;;3.00;99.90;;;;;;4975832;28;20184;-93
2022/01/09 12:02:55;;;;;;;6.43;3.20;;;3.00;99.90;;;;;;4975920;28;20231;-93
2022/01/09 12:05:21;;;;;;;4.20;2.57;;;3.00;99.90;;;;;;4975891;28;20619;-93
2022/01/09 12:07:48;;;;;;;6.20;2.80;;;3.10;99.90;;;;;;4976397;28;20195;-93
2022/01/09 12:10:28;;;;;;;4.23;2.73;;;3.10;99.90;;;;;;4977439;28;20189;-93
2022/01/09 12:12:56;;;;;;;7.10;2.83;;;3.10;99.90;;;;;;4973826;28;20188;-93
2022/01/09 12:15:40;;;;;;;4.97;2.93;;;3.10;99.90;;;;;;4977838;28;20300;-93
2022/01/09 12:18:27;;;;;;;4.97;2.70;;;3.20;99.90;;;;;;4976822;28;20196;-92
2022/01/09 12:20:53;;;;;;;4.97;3.27;;;3.20;99.90;;;;;;4974582;28;20215;-93
2022/01/09 12:23:22;;;;;;;5.43;3.30;;;3.20;99.90;;;;;;4976149;28;20431;-92
2022/01/09 12:25:50;;;;;;;5.40;2.93;;;3.20;99.90;;;;;;4975190;28;20204;-93
2022/01/09 12:28:25;;;;;;;4.30;2.73;;;3.20;99.90;;;;;;4976096;28;20177;-93
2022/01/09 12:30:57;;;;;;;5.03;2.87;;;3.20;99.90;;;;;;4976425;28;20674;-92
2022/01/09 12:33:27;;;;;;;6.73;3.63;;;3.20;99.90;;;;;;4977559;28;20716;-93
2022/01/09 12:36:06;;;;;;;5.13;3.13;;;3.30;99.90;;;;;;4976257;28;20243;-93
2022/01/09 12:38:39;;;;;;;5.80;3.30;;;3.30;99.90;;;;;;4976473;28;20192;-92
2022/01/09 12:41:11;;;;;;;6.13;3.77;;;3.30;99.90;;;;;;4976251;28;20208;-93
2022/01/09 12:43:38;;;;;;;8.97;4.10;;;3.30;99.90;;;;;;4976342;28;20184;-92
2022/01/09 12:46:18;;;;;;;8.43;4.50;;;3.30;99.90;;;;;;4976026;28;20176;-93
2022/01/09 12:49:09;;;;;;;8.00;3.87;;;3.40;99.90;;;;;;4976375;28;20311;-93
2022/01/09 12:51:36;;;;;;;8.03;4.33;;;3.40;99.90;;;;;;4976019;28;20181;-93
2022/01/09 12:54:04;;;;;;;6.23;4.40;;;3.40;99.90;;;;;;4975878;28;20247;-92
2022/01/09 12:56:32;;;;;;;9.77;4.47;;;3.40;99.90;;;;;;4975822;28;20208;-93
2022/01/09 12:59:02;;;;;;;10.80;4.90;;;3.40;99.90;;;;;;4976316;28;20681;-93
2022/01/09 13:01:31;;;;;;;11.87;4.57;;;3.40;99.90;;;;;;4976131;28;20271;-93
2022/01/09 13:04:00;;;;;;;9.97;4.17;;;3.50;99.90;;;;;;4976039;28;20216;-93